This is the latest recevied weather packets stored in our database for station/object K4BHH. If no packets are shown the sender has not sent any weather packets the latest 10 day(s).
| Time | Temp. | Humidity | Pressure | Rain* | Wind** | Luminosity | Snow |
|---|---|---|---|---|---|---|---|
| 1777454741 | 16.67° C | 94% | 1012.9 hPa | 0 mm | - | - | - |
| 1777451642 | 16.67° C | 93% | 1011.9 hPa | 0 mm | - | - | - |
| 1777447342 | 16.67° C | 94% | 1013.2 hPa | 5.84 mm | - | - | - |
| 1777445508 | 17.22° C | 94% | 1015.2 hPa | 6.86 mm | - | - | - |
| 1777439435 | 17.22° C | 94% | 1015.9 hPa | 5.84 mm | - | - | - |
| 1777435134 | 17.78° C | 93% | 1014.9 hPa | 0.51 mm | - | - | - |
| 1777434533 | 17.78° C | 93% | 1015.2 hPa | 0.25 mm | - | - | - |
| 1777433932 | 17.78° C | 92% | 1015.2 hPa | 0 mm | - | - | - |
| 1777427890 | 18.33° C | 93% | 1015.2 hPa | 3.81 mm | - | - | - |
| 1777424853 | 19.44° C | 92% | 1019 hPa | 4.57 mm | - | - | - |
| 1777422419 | 20° C | 87% | 1017.9 hPa | 0 mm | - | - | - |
| 1777416315 | 21.11° C | 83% | 1014.9 hPa | 0 mm | - | - | - |
| 1777415113 | 21.11° C | 83% | 1014.9 hPa | 0 mm | - | - | - |
| 1777410275 | 21.67° C | 81% | 1015.2 hPa | 0 mm | - | - | - |
| 1777406638 | 22.22° C | 80% | 1015.9 hPa | 0 mm | - | - | - |
| 1777405436 | 22.22° C | 79% | 1016.9 hPa | 0 mm | - | - | - |
| 1777404234 | 22.78° C | 79% | 1016.9 hPa | 0 mm | - | - | - |
| 1777403634 | 22.78° C | 79% | 1017.3 hPa | 0 mm | - | - | - |
| 1777397498 | 21.67° C | 82% | 1017.9 hPa | 0 mm | - | - | - |
| 1777393862 | 21.67° C | 83% | 1018.3 hPa | 0 mm | - | - | - |
| 1777384753 | 17.78° C | 91% | 1017.9 hPa | 0 mm | - | - | - |
| 1777382288 | 17.22° C | 92% | 1018.3 hPa | 3.81 mm | - | - | - |
| 1777381085 | 17.22° C | 92% | 1017.3 hPa | 8.64 mm | - | - | - |
| 1777376848 | 16.67° C | 93% | 1018.3 hPa | 12.7 mm | - | - | - |
| 1777362899 | 18.89° C | 87% | 1014.6 hPa | 0.76 mm | - | - | - |
* Rain latest hour (hover to see other rain measurements)
** Current wind speed in m/s (hover to see current wind gust speed)